Terminal Aerodrome Forecast
Issued by NWS Charleston, WV

Current Version | Previous Version | Graphics & Text | Print | Product List | Glossary On
Versions: 1 2 3 4 5 6 7 8 9 10 11 12 13 14 15 16 17 18 19 20 21 22 23 24 25 26 27 28
007
FTUS41 KRLX 222340
TAFCRW
TAF
KCRW 222340Z 2300/2324 35004KT P6SM VCSH BKN050
     FM230200 36002KT P6SM SCT070
     FM230600 00000KT 6SM BR SCT070
     FM230800 00000KT 4SM BR BKN060
     FM231000 00000KT 2SM BR SCT001 BKN060
     FM231200 00000KT 4SM BR BKN060
     FM231300 34003KT P6SM SCT070=

USA.gov is the U.S. government's official web portal to all federal, state and local government web resources and services.